createdAt,value
2019-03-12T00:01:33.046Z,7.30
2019-03-12T00:04:08.582Z,7.10
2019-03-12T00:06:43.449Z,5.87
2019-03-12T00:09:18.468Z,5.67
2019-03-12T00:11:53.786Z,5.83
2019-03-12T00:14:28.560Z,7.50
2019-03-12T00:17:03.652Z,6.87
2019-03-12T00:19:39.002Z,6.83
2019-03-12T00:22:14.097Z,6.43
2019-03-12T00:24:49.130Z,6.83
2019-03-12T00:27:25.199Z,6.20
2019-03-12T00:30:00.450Z,5.97
2019-03-12T00:32:35.818Z,6.60
2019-03-12T00:35:11.197Z,6.00
2019-03-12T00:37:46.381Z,7.00
2019-03-12T00:40:21.401Z,6.27
2019-03-12T00:42:56.421Z,6.77
2019-03-12T00:45:32.424Z,5.43
2019-03-12T00:48:07.500Z,5.80
2019-03-12T00:50:43.496Z,6.23
2019-03-12T00:53:18.961Z,7.17
2019-03-12T00:55:55.234Z,7.17
2019-03-12T00:58:30.340Z,6.27
2019-03-12T01:01:05.373Z,6.93
2019-03-12T01:03:40.390Z,7.07
2019-03-12T01:06:15.347Z,6.67
2019-03-12T01:08:50.181Z,6.17
2019-03-12T01:11:25.218Z,6.07
2019-03-12T01:14:00.589Z,6.63
2019-03-12T01:16:36.841Z,6.10
2019-03-12T01:19:12.381Z,7.43
2019-03-12T01:21:47.497Z,6.10
2019-03-12T01:24:22.871Z,6.33
2019-03-12T01:26:57.990Z,6.23
2019-03-12T01:29:33.026Z,6.00
2019-03-12T01:32:08.105Z,9.77
2019-03-12T01:34:43.134Z,7.17
2019-03-12T01:37:18.462Z,8.07
2019-03-12T01:39:53.807Z,7.13
2019-03-12T01:42:28.835Z,10.00
2019-03-12T01:45:04.118Z,10.37
2019-03-12T01:47:39.240Z,6.27
2019-03-12T01:50:15.420Z,7.00
2019-03-12T01:52:50.842Z,6.27
2019-03-12T01:55:25.915Z,7.80
2019-03-12T01:58:00.945Z,8.40
2019-03-12T02:00:36.335Z,7.87
2019-03-12T02:03:11.358Z,7.10
2019-03-12T02:05:46.382Z,9.07
2019-03-12T02:08:21.659Z,8.30
2019-03-12T02:10:56.686Z,10.97
2019-03-12T02:13:31.724Z,8.27
2019-03-12T02:16:06.737Z,10.73
2019-03-12T02:18:41.786Z,9.83
2019-03-12T02:21:16.790Z,9.93
2019-03-12T02:23:51.838Z,9.80
2019-03-12T02:26:27.765Z,8.40
2019-03-12T02:29:02.796Z,10.23
2019-03-12T02:31:37.839Z,10.13
2019-03-12T02:34:12.870Z,10.23
2019-03-12T02:36:48.232Z,10.37
2019-03-12T02:39:23.356Z,9.73
2019-03-12T02:41:58.640Z,11.57
2019-03-12T02:44:33.713Z,10.23
2019-03-12T02:47:08.744Z,9.90
2019-03-12T02:49:43.778Z,10.27
2019-03-12T02:52:18.876Z,9.97
2019-03-12T02:54:53.999Z,12.37
2019-03-12T02:57:29.022Z,11.33
2019-03-12T03:00:07.878Z,10.43
2019-03-12T03:02:43.314Z,9.57
2019-03-12T03:05:20.144Z,9.87
2019-03-12T03:08:00.278Z,11.47
2019-03-12T03:10:35.315Z,11.07
2019-03-12T03:13:10.362Z,11.80
2019-03-12T03:15:47.152Z,10.27
2019-03-12T03:18:22.253Z,13.47
2019-03-12T03:20:57.417Z,11.30
2019-03-12T03:23:32.584Z,10.77
2019-03-12T03:26:07.719Z,11.30
2019-03-12T03:28:42.833Z,16.13
2019-03-12T03:31:17.875Z,13.13
2019-03-12T03:33:52.972Z,14.33
2019-03-12T03:36:28.227Z,11.63
2019-03-12T03:39:04.514Z,13.80
2019-03-12T03:41:40.319Z,12.23
2019-03-12T03:44:15.393Z,12.23
2019-03-12T03:46:50.803Z,10.07
2019-03-12T03:49:26.936Z,11.73
2019-03-12T03:52:02.407Z,12.77
2019-03-12T03:54:38.452Z,11.70
2019-03-12T03:57:14.562Z,11.60
2019-03-12T03:59:49.932Z,12.40
2019-03-12T04:02:24.952Z,12.27
2019-03-12T04:05:00.568Z,13.37
2019-03-12T04:07:35.783Z,11.03
2019-03-12T04:10:12.369Z,11.77
2019-03-12T04:12:47.393Z,12.13
2019-03-12T04:15:22.429Z,9.90
2019-03-12T04:17:57.676Z,12.30
2019-03-12T04:20:32.799Z,10.90
2019-03-12T04:23:08.286Z,10.73
2019-03-12T04:25:43.323Z,11.80
2019-03-12T04:28:19.729Z,12.83
2019-03-12T04:30:55.007Z,10.80
2019-03-12T04:33:53.202Z,10.17
2019-03-12T04:36:28.499Z,10.50
2019-03-12T04:39:05.157Z,9.97
2019-03-12T04:41:41.777Z,10.23
2019-03-12T04:44:17.213Z,9.33
2019-03-12T04:46:52.888Z,10.20
2019-03-12T04:49:27.938Z,10.60
2019-03-12T04:52:03.032Z,9.73
2019-03-12T04:54:38.072Z,11.53
2019-03-12T04:57:14.107Z,8.87
2019-03-12T04:59:49.466Z,11.37
2019-03-12T05:02:24.504Z,9.83
2019-03-12T05:04:59.522Z,10.10
2019-03-12T05:07:34.883Z,8.77
2019-03-12T05:10:12.523Z,8.27
2019-03-12T05:12:48.745Z,8.17
2019-03-12T05:15:23.779Z,7.90
2019-03-12T05:17:58.869Z,8.30
2019-03-12T05:20:33.909Z,7.30
2019-03-12T05:23:09.397Z,7.93
2019-03-12T05:25:44.428Z,8.17
2019-03-12T05:28:19.980Z,9.13
2019-03-12T05:30:56.101Z,8.27
2019-03-12T05:33:31.481Z,8.57
2019-03-12T05:36:06.568Z,8.37
2019-03-12T05:38:41.954Z,8.93
2019-03-12T05:41:17.942Z,7.97
2019-03-12T05:43:53.267Z,9.10
2019-03-12T05:46:28.290Z,6.53
2019-03-12T05:49:03.633Z,7.63
2019-03-12T05:51:38.671Z,6.70
2019-03-12T05:54:14.629Z,7.53
2019-03-12T05:56:50.006Z,6.77
2019-03-12T05:59:25.430Z,5.97
2019-03-12T06:02:01.508Z,5.83
2019-03-12T06:04:37.022Z,6.27
2019-03-12T06:07:12.306Z,6.97
2019-03-12T06:09:47.337Z,6.53
2019-03-12T06:12:22.367Z,6.43
2019-03-12T06:14:57.483Z,6.73
2019-03-12T06:17:32.766Z,5.63
2019-03-12T06:20:13.448Z,4.97
2019-03-12T06:22:48.546Z,4.90
2019-03-12T06:25:23.928Z,5.30
2019-03-12T06:28:00.833Z,5.43
2019-03-12T06:30:37.519Z,5.77
2019-03-12T06:33:32.107Z,5.10
2019-03-12T06:36:15.578Z,5.27
2019-03-12T06:39:10.129Z,5.17
2019-03-12T06:41:59.808Z,4.53
2019-03-12T06:44:45.726Z,4.93
2019-03-12T06:47:25.915Z,4.27
2019-03-12T06:50:05.842Z,7.30
2019-03-12T06:52:43.142Z,5.50
2019-03-12T06:55:20.175Z,5.70
2019-03-12T06:58:17.300Z,5.67
2019-03-12T07:01:10.496Z,5.73
2019-03-12T07:03:47.313Z,6.03
2019-03-12T07:06:27.469Z,7.80
2019-03-12T07:09:21.966Z,5.33
2019-03-12T07:11:58.890Z,5.20
2019-03-12T07:14:35.577Z,6.30
2019-03-12T07:17:12.547Z,6.97
2019-03-12T07:20:06.440Z,5.67
2019-03-12T07:22:59.629Z,6.30
2019-03-12T07:25:42.750Z,6.63
2019-03-12T07:28:19.725Z,8.07
2019-03-12T07:31:05.612Z,6.77
2019-03-12T07:33:49.650Z,7.40
2019-03-12T07:36:26.325Z,8.43
2019-03-12T07:39:12.709Z,7.57
2019-03-12T07:41:53.691Z,7.63
2019-03-12T07:44:39.789Z,6.57
2019-03-12T07:47:35.603Z,7.50
2019-03-12T07:50:05.919Z,6.23
2019-03-12T07:52:42.595Z,7.90
2019-03-12T07:55:19.265Z,7.83
2019-03-12T07:58:01.287Z,6.73
2019-03-12T08:00:44.492Z,6.37
2019-03-12T08:03:38.811Z,7.03
2019-03-12T08:06:15.757Z,5.60
2019-03-12T08:08:57.060Z,7.03
2019-03-12T08:11:34.710Z,6.50
2019-03-12T08:14:11.721Z,6.97
2019-03-12T08:16:51.571Z,7.67
2019-03-12T08:19:45.802Z,7.07
2019-03-12T08:22:36.085Z,6.90
2019-03-12T08:25:29.195Z,8.00
2019-03-12T08:28:08.829Z,6.23
2019-03-12T08:30:45.509Z,7.33
2019-03-12T08:33:35.167Z,8.00
2019-03-12T08:36:23.907Z,7.17
2019-03-12T08:39:00.575Z,7.20
2019-03-12T08:41:53.641Z,7.17
2019-03-12T08:44:30.314Z,8.97
2019-03-12T08:47:06.995Z,7.87
2019-03-12T08:49:46.581Z,6.73
2019-03-12T08:52:41.060Z,11.70
2019-03-12T08:55:27.029Z,8.47
2019-03-12T08:58:04.088Z,7.00
2019-03-12T09:00:44.004Z,7.30
2019-03-12T09:03:20.660Z,6.13
2019-03-12T09:06:00.867Z,6.07
2019-03-12T09:08:50.361Z,7.30
2019-03-12T09:11:30.340Z,6.63
2019-03-12T09:14:24.366Z,5.70
2019-03-12T09:17:03.832Z,6.87
2019-03-12T09:19:40.966Z,4.93
2019-03-12T09:22:35.652Z,5.57
2019-03-12T09:25:22.193Z,5.80
2019-03-12T09:28:02.488Z,6.37
2019-03-12T09:30:39.864Z,5.33
2019-03-12T09:33:17.095Z,5.87
2019-03-12T09:36:00.935Z,5.60
2019-03-12T09:38:47.018Z,5.53
2019-03-12T09:41:27.539Z,4.43
2019-03-12T09:44:05.176Z,4.33
2019-03-12T09:46:59.423Z,3.87
2019-03-12T09:49:36.113Z,3.77
2019-03-12T09:52:16.961Z,4.77
2019-03-12T09:54:53.721Z,4.10
2019-03-12T09:57:30.656Z,3.40
2019-03-12T10:00:21.020Z,3.57
2019-03-12T10:03:10.598Z,3.77
2019-03-12T10:06:05.549Z,3.53
2019-03-12T10:08:42.476Z,2.80
2019-03-12T10:11:37.047Z,3.47
2019-03-12T10:14:29.936Z,3.37
2019-03-12T10:17:24.158Z,3.33
2019-03-12T10:20:16.953Z,2.87
2019-03-12T10:23:06.380Z,3.00
2019-03-12T10:25:49.154Z,3.87
2019-03-12T10:28:41.013Z,5.60
2019-03-12T10:31:35.696Z,2.57
2019-03-12T10:34:13.335Z,2.70
2019-03-12T10:36:53.209Z,2.47
2019-03-12T10:40:10.635Z,2.73
2019-03-12T10:42:54.986Z,2.00
2019-03-12T10:45:37.533Z,2.87
2019-03-12T10:48:14.457Z,2.23
2019-03-12T10:50:49.846Z,2.03
2019-03-12T10:53:25.131Z,2.20
2019-03-12T10:56:00.434Z,2.67
2019-03-12T10:58:35.464Z,4.13
2019-03-12T11:01:10.503Z,3.07
2019-03-12T11:03:45.530Z,2.17
2019-03-12T11:06:20.574Z,2.17
2019-03-12T11:08:55.598Z,5.20
2019-03-12T11:11:30.630Z,1.93
2019-03-12T11:14:06.639Z,2.17
2019-03-12T11:16:41.661Z,1.63
2019-03-12T11:19:16.746Z,1.60
2019-03-12T11:21:52.014Z,1.93
2019-03-12T11:24:27.049Z,2.27
2019-03-12T11:27:02.431Z,2.17
2019-03-12T11:29:39.496Z,1.83
2019-03-12T11:32:14.548Z,2.23
2019-03-12T11:34:50.823Z,2.60
2019-03-12T11:37:25.869Z,1.47
2019-03-12T11:40:02.098Z,1.90
2019-03-12T11:42:40.150Z,2.10
2019-03-12T11:45:19.465Z,1.53
2019-03-12T11:47:55.228Z,1.70
2019-03-12T11:50:30.326Z,2.40
2019-03-12T11:53:05.452Z,1.70
2019-03-12T11:55:40.545Z,2.27
2019-03-12T11:58:15.673Z,1.53
2019-03-12T12:00:52.617Z,1.90
2019-03-12T12:03:27.729Z,1.87
2019-03-12T12:06:04.246Z,1.20
2019-03-12T12:08:39.766Z,1.67
2019-03-12T12:11:14.781Z,2.43
2019-03-12T12:13:50.079Z,2.23
2019-03-12T12:16:25.112Z,1.93
2019-03-12T12:19:00.148Z,1.80
2019-03-12T12:21:36.401Z,1.67
2019-03-12T12:24:11.442Z,2.63
2019-03-12T12:26:46.509Z,1.60
2019-03-12T12:29:21.546Z,1.83
2019-03-12T12:31:57.488Z,1.90
2019-03-12T12:34:32.889Z,1.67
2019-03-12T12:37:09.102Z,1.70
2019-03-12T12:39:44.208Z,2.87
2019-03-12T12:42:19.249Z,2.20
2019-03-12T12:44:54.517Z,6.37
2019-03-12T12:47:29.565Z,2.30
2019-03-12T12:50:07.124Z,2.50
2019-03-12T12:52:42.409Z,1.80
2019-03-12T12:55:17.457Z,1.90
2019-03-12T12:57:52.575Z,1.80
2019-03-12T13:00:30.162Z,1.40
2019-03-12T13:03:05.457Z,2.53
2019-03-12T13:05:41.018Z,1.50
2019-03-12T13:08:17.374Z,2.90
2019-03-12T13:10:54.345Z,1.63
2019-03-12T13:13:29.658Z,1.80
2019-03-12T13:16:05.639Z,1.90
2019-03-12T13:18:41.719Z,1.80
2019-03-12T13:21:17.619Z,1.73
2019-03-12T13:23:53.607Z,2.50
2019-03-12T13:26:28.621Z,1.87
2019-03-12T13:29:04.706Z,1.80
2019-03-12T13:31:39.766Z,2.60
2019-03-12T13:34:14.909Z,2.67
2019-03-12T13:36:50.020Z,2.33
2019-03-12T13:39:26.116Z,2.27
2019-03-12T13:42:02.198Z,2.50
2019-03-12T13:44:37.631Z,2.30
2019-03-12T13:47:12.992Z,1.97
2019-03-12T13:49:49.358Z,2.37
2019-03-12T13:52:24.713Z,2.53
2019-03-12T13:55:02.484Z,2.20
2019-03-12T13:57:39.450Z,1.90
2019-03-12T14:00:23.773Z,2.10
2019-03-12T14:02:58.802Z,1.73
2019-03-12T14:05:33.827Z,2.10
2019-03-12T14:08:08.879Z,1.70
2019-03-12T14:10:43.997Z,2.00
2019-03-12T14:13:20.141Z,1.77
2019-03-12T14:15:56.195Z,3.93
2019-03-12T14:18:31.480Z,2.30
2019-03-12T14:21:09.679Z,4.13
2019-03-12T14:23:47.778Z,2.20
2019-03-12T14:26:22.990Z,2.57
2019-03-12T14:28:58.350Z,3.10
2019-03-12T14:31:34.344Z,2.87
2019-03-12T14:34:09.407Z,2.43
2019-03-12T14:36:44.422Z,3.80
2019-03-12T14:39:21.055Z,2.93
2019-03-12T14:41:56.072Z,3.67
2019-03-12T14:44:31.361Z,2.83
2019-03-12T14:47:06.624Z,4.20
2019-03-12T14:49:41.669Z,2.83
2019-03-12T14:52:16.778Z,3.63
2019-03-12T14:54:52.055Z,2.77
2019-03-12T14:57:28.989Z,3.30
2019-03-12T15:00:14.281Z,2.90
2019-03-12T15:02:49.545Z,5.90
2019-03-12T15:05:24.950Z,3.77
2019-03-12T15:08:01.319Z,3.93
2019-03-12T15:10:36.361Z,3.63
2019-03-12T15:13:12.647Z,3.57
2019-03-12T15:15:47.942Z,4.07
2019-03-12T15:18:22.998Z,4.93
2019-03-12T15:20:58.090Z,3.77
2019-03-12T15:23:34.290Z,3.63
2019-03-12T15:26:10.254Z,4.30
2019-03-12T15:28:45.618Z,4.30
2019-03-12T15:31:20.896Z,3.90
2019-03-12T15:33:55.952Z,4.03
2019-03-12T15:36:31.993Z,3.83
2019-03-12T15:39:07.975Z,3.93
2019-03-12T15:41:44.622Z,4.60
2019-03-12T15:44:19.770Z,4.10
2019-03-12T15:46:55.082Z,6.10
2019-03-12T15:49:30.097Z,3.70
2019-03-12T15:52:05.447Z,6.40
2019-03-12T15:54:41.437Z,3.43
2019-03-12T15:57:16.506Z,3.60
2019-03-12T15:59:53.469Z,4.00
2019-03-12T16:02:28.500Z,3.13
2019-03-12T16:05:04.186Z,4.30
2019-03-12T16:07:39.655Z,3.70
2019-03-12T16:10:19.630Z,4.03
2019-03-12T16:12:55.006Z,4.13
2019-03-12T16:15:30.049Z,3.80
2019-03-12T16:18:05.071Z,3.73
2019-03-12T16:20:40.350Z,3.63
2019-03-12T16:23:16.050Z,4.53
2019-03-12T16:25:51.108Z,4.27
2019-03-12T16:28:27.377Z,6.43
2019-03-12T16:31:02.457Z,4.47
2019-03-12T16:33:38.438Z,3.67
2019-03-12T16:36:13.469Z,3.60
2019-03-12T16:38:48.547Z,4.63
2019-03-12T16:41:24.608Z,3.60
2019-03-12T16:43:59.628Z,4.00
2019-03-12T16:46:34.671Z,3.80
2019-03-12T16:49:09.702Z,3.60
2019-03-12T16:51:44.714Z,3.73
2019-03-12T16:54:19.748Z,3.00
2019-03-12T16:56:55.027Z,2.83
2019-03-12T16:59:30.413Z,3.03
2019-03-12T17:02:05.434Z,3.30
2019-03-12T17:04:40.469Z,3.23
2019-03-12T17:07:15.477Z,3.03
2019-03-12T17:09:50.529Z,3.17
2019-03-12T17:12:27.151Z,4.00
2019-03-12T17:15:02.722Z,2.87
2019-03-12T17:17:39.294Z,3.43
2019-03-12T17:20:15.678Z,3.47
2019-03-12T17:22:51.076Z,4.10
2019-03-12T17:25:27.096Z,3.30
2019-03-12T17:28:02.115Z,4.53
2019-03-12T17:30:37.650Z,2.70
2019-03-12T17:33:12.676Z,5.63
2019-03-12T17:35:47.947Z,2.93
2019-03-12T17:38:22.988Z,4.27
2019-03-12T17:40:59.317Z,2.67
2019-03-12T17:43:34.335Z,3.20
2019-03-12T17:46:09.361Z,2.23
2019-03-12T17:48:44.386Z,3.23
2019-03-12T17:51:19.749Z,2.73
2019-03-12T17:53:55.725Z,3.50
2019-03-12T17:56:31.071Z,2.90
2019-03-12T17:59:06.082Z,3.60
2019-03-12T18:01:42.674Z,3.17
2019-03-12T18:04:17.773Z,3.17
2019-03-12T18:06:52.807Z,3.23
2019-03-12T18:09:29.051Z,3.23
2019-03-12T18:12:04.124Z,3.40
2019-03-12T18:14:39.162Z,3.53
2019-03-12T18:17:15.242Z,3.83
2019-03-12T18:19:50.365Z,5.37
2019-03-12T18:22:25.592Z,3.83
2019-03-12T18:25:01.142Z,4.00
2019-03-12T18:27:36.662Z,3.27
2019-03-12T18:30:14.327Z,3.30
2019-03-12T18:32:49.489Z,3.07
2019-03-12T18:35:24.624Z,4.67
2019-03-12T18:37:59.931Z,4.27
2019-03-12T18:40:34.989Z,3.23
2019-03-12T18:43:10.351Z,3.80
2019-03-12T18:45:45.402Z,2.93
2019-03-12T18:48:20.733Z,4.30
2019-03-12T18:50:55.823Z,3.57
2019-03-12T18:53:31.795Z,2.83
2019-03-12T18:56:08.158Z,4.20
2019-03-12T18:58:43.305Z,5.50
2019-03-12T19:01:18.570Z,7.17
2019-03-12T19:03:53.629Z,3.37
2019-03-12T19:06:28.716Z,3.77
2019-03-12T19:09:05.361Z,3.10
2019-03-12T19:11:42.284Z,3.60
2019-03-12T19:14:17.664Z,4.03
2019-03-12T19:16:53.730Z,3.87
2019-03-12T19:19:30.664Z,3.97
2019-03-12T19:22:06.265Z,3.53
2019-03-12T19:24:41.392Z,3.53
2019-03-12T19:27:20.126Z,3.80
2019-03-12T19:29:55.175Z,4.13
2019-03-12T19:32:33.622Z,4.07
2019-03-12T19:35:15.038Z,4.07
2019-03-12T19:37:50.539Z,3.33
2019-03-12T19:40:39.680Z,2.87
2019-03-12T19:43:16.259Z,3.27
2019-03-12T19:45:51.417Z,2.93
2019-03-12T19:48:27.545Z,4.33
2019-03-12T19:51:02.956Z,3.83
2019-03-12T19:53:38.701Z,2.97
2019-03-12T19:56:14.548Z,3.57
2019-03-12T19:58:50.916Z,3.30
2019-03-12T20:01:28.009Z,3.57
2019-03-12T20:04:04.014Z,3.30
2019-03-12T20:06:40.022Z,3.40
2019-03-12T20:09:18.002Z,3.33
2019-03-12T20:12:07.397Z,3.57
2019-03-12T20:15:02.522Z,3.03
2019-03-12T20:17:45.772Z,3.80
2019-03-12T20:21:00.513Z,3.40
2019-03-12T20:23:56.585Z,2.97
2019-03-12T20:26:38.575Z,2.87
2019-03-12T20:29:48.640Z,3.77
2019-03-12T20:32:31.330Z,2.90
2019-03-12T20:35:45.287Z,10.07
2019-03-12T20:38:49.866Z,3.60
2019-03-12T20:41:40.750Z,3.13
2019-03-12T20:44:28.764Z,3.17
2019-03-12T20:47:16.436Z,3.40
2019-03-12T20:50:30.385Z,3.07
2019-03-12T20:53:40.031Z,3.70
2019-03-12T20:56:38.264Z,3.23
2019-03-12T20:59:37.881Z,3.40
2019-03-12T21:02:26.279Z,3.50
2019-03-12T21:05:41.541Z,3.20
2019-03-12T21:08:39.467Z,4.13
2019-03-12T21:11:31.471Z,3.13
2019-03-12T21:14:09.805Z,3.30
2019-03-12T21:16:54.474Z,3.00
2019-03-12T21:19:50.569Z,2.80
2019-03-12T21:22:57.910Z,3.03
2019-03-12T21:25:59.097Z,4.20
2019-03-12T21:29:03.164Z,2.60
2019-03-12T21:31:38.649Z,2.73
2019-03-12T21:34:13.759Z,2.93
2019-03-12T21:36:49.297Z,3.30
2019-03-12T21:39:24.779Z,3.50
2019-03-12T21:42:00.077Z,3.50
2019-03-12T21:44:35.425Z,3.10
2019-03-12T21:47:10.545Z,3.93
2019-03-12T21:49:45.813Z,3.23
2019-03-12T21:52:20.855Z,3.43
2019-03-12T21:54:55.871Z,6.17
2019-03-12T21:57:30.914Z,3.33
2019-03-12T22:00:09.351Z,3.53
2019-03-12T22:02:46.269Z,3.10
2019-03-12T22:05:21.273Z,3.03
2019-03-12T22:07:57.343Z,2.60
2019-03-12T22:10:33.282Z,2.90
2019-03-12T22:13:08.619Z,3.17
2019-03-12T22:15:43.922Z,3.40
2019-03-12T22:18:19.035Z,4.23
2019-03-12T22:20:56.890Z,2.83
2019-03-12T22:23:33.830Z,2.63
2019-03-12T22:26:09.120Z,3.03
2019-03-12T22:28:44.157Z,3.40
2019-03-12T22:31:19.601Z,5.40
2019-03-12T22:33:54.636Z,2.67
2019-03-12T22:36:29.965Z,5.43
2019-03-12T22:39:06.121Z,3.03
2019-03-12T22:41:41.455Z,4.73
2019-03-12T22:44:16.843Z,2.70
2019-03-12T22:46:52.298Z,2.73
2019-03-12T22:49:27.317Z,2.77
2019-03-12T22:52:03.263Z,2.57
2019-03-12T22:54:38.319Z,2.07
2019-03-12T22:57:13.816Z,2.03
2019-03-12T23:00:13.938Z,3.03
2019-03-12T23:03:09.058Z,2.47
2019-03-12T23:06:03.665Z,1.93
2019-03-12T23:08:57.909Z,2.37
2019-03-12T23:11:34.710Z,2.10
2019-03-12T23:14:11.504Z,3.07
2019-03-12T23:16:47.157Z,4.47
2019-03-12T23:19:23.331Z,1.80
2019-03-12T23:21:58.636Z,4.40
2019-03-12T23:24:33.921Z,1.83
2019-03-12T23:27:08.992Z,4.77
2019-03-12T23:29:44.278Z,2.17
2019-03-12T23:32:20.542Z,1.97
2019-03-12T23:34:56.999Z,1.93
2019-03-12T23:37:33.261Z,2.13
2019-03-12T23:40:14.272Z,2.37
2019-03-12T23:42:49.592Z,2.07
2019-03-12T23:45:26.574Z,1.50
2019-03-12T23:48:01.612Z,2.17
2019-03-12T23:50:37.157Z,2.23
2019-03-12T23:53:12.495Z,1.63
2019-03-12T23:55:47.529Z,2.43
2019-03-12T23:58:25.635Z,1.93
